Station info - map view · info · telemetry · weather · raw · status · beacons · messages · bulletins · browse · moving · my account
Callsign, ship name or locator: Clear       
It is possible to search using wildcards (*?) after a prefix. Example: OH*
APRS station IK8WEC-9 - show graphs
Map loading...
Comment: Fabio Campobasso * TM-D700
Mic-E message: En route
Location: 41°59.08' N 14°59.29' E - locator JN71LX86NH - show map - static map
3.1 miles Northwest bearing 310° from Campomarino, Provincia di Campobasso, Molise, Italy [?]
4.8 miles North bearing 348° from Portocannone, Provincia di Campobasso, Molise, Italy
46.3 miles Northwest bearing 322° from Foggia, Provincia di Foggia, Apulia, Italy
51.6 miles Southeast bearing 129° from Pescara, Provincia di Pescara, Abruzzo, Italy
Last position: 2016-09-14 13:06:04 EDT (12d 17h19m ago)
2016-09-14 19:06:04 CEST local time at Campomarino, Italy [?]
Altitude: 331 ft
Course: 156°
Speed: 65 MPH
Device: Kenwood: TM-D700 (rig)
Last path: IK8WEC-9>TQ5Y08 via TCPIP*,qAS,IQ6RS-11
Positions stored: 17149
Other SSIDs: IK8WEC IK8WEC-11
Stations near current position of IK8WEC-9 - show more
callsign distance last heard - EDT      callsign distance last heard - EDT
DW572014.1 miles 297°2016-09-27 06:25:04 IZ8VHG-514.5 miles 218°2016-09-05 16:48:27
IK6TUP-516.7 miles 301°2016-09-13 06:40:07 IR6UDB B16.8 miles 296°2016-09-27 06:11:55
IR6UDB-B16.8 miles 296°2016-09-27 06:12:05 IK6TUP-1117.0 miles 300°2016-09-20 06:43:10
IK6TUP-1017.2 miles 302°2016-09-06 08:22:36 IK6TUP-917.9 miles 301°2016-09-26 05:57:44
IZ8ESP18.8 miles 179°2016-09-19 12:32:17 IW2HMW22.6 miles 302°2016-08-31 09:37:39
IW7DZR25.8 miles 143°2016-09-18 14:53:20 IK6ZNK28.8 miles 280°2016-09-27 06:24:26
IZ6RND32.5 miles 303°2016-09-27 05:37:55 IZ6FKI35.0 miles 299°2016-09-24 09:40:48
IZ6FKI-135.0 miles 299°2016-09-13 02:28:29
Stations which heard IK8WEC-9 directly on radio –
callsign pkts first heard - EDT last heard longest (tx => rx) longest at - EDT
IW4EGP 6 2016-09-13 12:18:06 2016-09-14 09:41:58 JN64FC > JN64GB 3.7 miles 139° 2016-09-14 09:37:51
IR6AF 10 2016-09-13 11:37:57 2016-09-14 10:26:41 JN63RN > JN63OP 13.0 miles 296° 2016-09-14 10:26:41
T77NC 12 2016-09-13 12:23:19 2016-09-14 09:38:53 JN64DE > JN63FW 18.3 miles 154° 2016-09-14 09:28:27
IR6RST 3 2016-09-13 09:08:25 2016-09-14 11:37:30 JN72KA > JN72AN 58.7 miles 312° 2016-09-13 09:08:25
9A4QV-11 20 2016-09-13 10:59:54 2016-09-14 11:17:57 JN62XS > JN75BA 154.9 miles 4° 2016-09-14 11:17:57
IR6UCA 14 2016-09-13 12:01:34 2016-09-14 09:58:41 JN63IX > JN63KV 8.9 miles 119° 2016-09-13 12:11:57
IR4AS 11 2016-09-13 12:18:09 2016-09-14 09:44:09 JN64ED > JN64GB 10.4 miles 127° 2016-09-14 09:32:38
IR6BC 17 2016-09-13 11:31:48 2016-09-14 10:28:44 JN63NS > JN63QO 19.3 miles 128° 2016-09-14 10:07:58
IR8UY 1 2016-09-13 08:10:47 2016-09-13 08:10:47 JN71IM > JN71EL 14.8 miles 250° 2016-09-13 08:10:47
IW6CIQ 30 2016-09-13 09:09:25 2016-09-13 11:34:49 JN72KA > JN63SM 124.2 miles 327° 2016-09-13 09:09:25
9A1CIG-10 11 2016-09-13 09:17:41 2016-09-14 11:12:47 JN63UH > JN83HM 146.1 miles 84° 2016-09-13 10:56:47
I6NHA-11 6 2016-09-13 10:50:39 2016-09-14 10:47:08 JN63UI > JN63UG 7.5 miles 158° 2016-09-13 10:58:52
IZ4UFQ-10 33 2016-09-13 13:07:22 2016-09-14 08:57:22 JN54SK > JN54QL 10.2 miles 285° 2016-09-14 08:57:22
IZ4SJB-3 2 2016-09-13 13:29:07 2016-09-13 13:30:10 JN54PM > JN54PL 2.1 miles 259° 2016-09-13 13:29:07
IR6UCQ 3 2016-09-13 11:05:07 2016-09-13 11:17:28 JN63TL > JN63NE 30.3 miles 229° 2016-09-13 11:17:28
IR4BA 7 2016-09-13 13:02:06 2016-09-14 08:56:21 JN54SK > JN54NF 27.6 miles 235° 2016-09-13 13:02:06
IR6BJ 2 2016-09-13 10:25:58 2016-09-13 10:31:07 JN62XT > JN62UU 9.0 miles 278° 2016-09-13 10:25:58
IZ6IQA 2 2016-09-13 10:28:00 2016-09-14 11:06:38 JN62WU > JN62WX 7.9 miles 347° 2016-09-13 10:28:00
IZ4GWE-11 10 2016-09-13 12:10:54 2016-09-14 09:53:29 JN63JW > JN64CK 44.8 miles 319° 2016-09-14 09:53:29
IR6FRA 7 2016-09-13 09:48:47 2016-09-14 12:25:58 JN63WB > JN72DK 48.5 miles 153° 2016-09-13 10:41:23
IR6MEP 6 2016-09-13 08:50:49 2016-09-14 13:03:01 JN71KU > JN62TQ 86.9 miles 312° 2016-09-13 08:50:49
IR6AC 78 2016-09-13 09:19:42 2016-09-14 13:01:55 JN63WB > JN72BE 62.9 miles 168° 2016-09-14 11:00:28
9A1DD-11 2 2016-09-14 10:15:09 2016-09-14 10:18:36 JN63OQ > JN75IA 116.5 miles 37° 2016-09-14 10:15:09
IQ4SC 1 2016-09-14 08:37:34 2016-09-14 08:37:34 JN54QM > JN54IO 33.3 miles 281° 2016-09-14 08:37:34
IQ6KX-10 4 2016-09-13 11:31:44 2016-09-14 10:20:26 JN63PQ > JN63SO 12.3 miles 113° 2016-09-14 10:17:22
IZ6WRM-10 8 2016-09-13 11:37:54 2016-09-14 10:21:28 JN63PQ > JN63QP 6.6 miles 120° 2016-09-13 11:44:05
9A5PH-5 13 2016-09-13 09:04:22 2016-09-14 11:30:20 JN71LX > JN73TT 130.0 miles 13° 2016-09-13 09:04:22
IR4UCI-11 2 2016-09-14 08:38:39 2016-09-14 08:42:45 JN54QM > JN54MM 16.8 miles 271° 2016-09-14 08:42:45
IV3GFJ-11 3 2016-09-13 11:43:03 2016-09-14 10:18:23 JN63PP > JN65ST 149.0 miles 4° 2016-09-14 10:18:23
9A0KG-10 10 2016-09-13 09:26:55 2016-09-14 11:17:55 JN62XQ > JN83EN 138.0 miles 64° 2016-09-13 10:18:40
IZ4AQM 27 2016-09-13 12:34:08 2016-09-14 09:27:26 JN64CE > JN54TD 30.0 miles 263° 2016-09-14 09:27:26
IK6DIO-5 16 2016-09-13 11:11:12 2016-09-14 10:26:39 JN63TL > JN63OR 25.3 miles 310° 2016-09-13 11:11:12

Only position packets which were originated by the station are shown here. The range statistics show some extra long hops, because some digipeaters do not correctly add themselves to the digipeater path. Please check the raw packets.
About this site
This page shows real-time information collected from the Automatic Position Reporting System Internet network (APRS-IS). APRS is used by amateur (ham) radio operators to transmit real-time position information, weather data, telemetry and messages over the radio. A vehicle equipped with a GPS receiver, a VHF transmitter or HF transceiver and a small computer device called a tracker transmits it's location, speed and course in a small data packet, which is then received by a nearby iGate receiving site which forwards the packet on the Internet. Systems connected to the Internet can send information on the APRS-IS without a radio transmitter, or collect and display information transmitted anywhere in the world.
FAQ · Blog · Discussion group · Linking to aprs.fi · AIS sites · Service status · Database statistics · Advertising on aprs.fi · Technical details · API · Change log · Planned changes · Credits and thanks · Terms Of Service · iPhone/iPad APRS